sensor_id;sensor_type;location;lat;lon;timestamp;temperature;humidity
13850;DHT22;6995;52.618;13.488;2024-01-07T00:01:35;-0.10;99.90
13850;DHT22;6995;52.618;13.488;2024-01-07T00:04:01;-0.10;99.90
13850;DHT22;6995;52.618;13.488;2024-01-07T00:06:26;-0.20;99.90
13850;DHT22;6995;52.618;13.488;2024-01-07T00:08:52;-0.10;99.90
13850;DHT22;6995;52.618;13.488;2024-01-07T00:11:18;-0.20;99.90
13850;DHT22;6995;52.618;13.488;2024-01-07T00:13:44;-0.20;99.90
13850;DHT22;6995;52.618;13.488;2024-01-07T00:16:10;-0.20;99.90
13850;DHT22;6995;52.618;13.488;2024-01-07T00:18:35;-0.20;99.90
13850;DHT22;6995;52.618;13.488;2024-01-07T00:21:01;-0.20;99.90
13850;DHT22;6995;52.618;13.488;2024-01-07T00:23:26;-0.20;99.90
13850;DHT22;6995;52.618;13.488;2024-01-07T00:25:52;-0.30;99.90
13850;DHT22;6995;52.618;13.488;2024-01-07T00:28:18;-0.30;99.90
13850;DHT22;6995;52.618;13.488;2024-01-07T00:30:45;-0.40;99.90
13850;DHT22;6995;52.618;13.488;2024-01-07T00:33:11;-0.40;99.90
13850;DHT22;6995;52.618;13.488;2024-01-07T00:35:36;-0.40;99.90
13850;DHT22;6995;52.618;13.488;2024-01-07T00:38:02;-0.30;99.90
13850;DHT22;6995;52.618;13.488;2024-01-07T00:40:30;-0.40;99.90
13850;DHT22;6995;52.618;13.488;2024-01-07T00:42:56;-0.40;99.90
13850;DHT22;6995;52.618;13.488;2024-01-07T00:45:21;-0.50;99.90
13850;DHT22;6995;52.618;13.488;2024-01-07T00:47:47;-0.50;99.90
13850;DHT22;6995;52.618;13.488;2024-01-07T00:50:13;-0.60;99.90
13850;DHT22;6995;52.618;13.488;2024-01-07T00:52:38;-0.60;99.90
13850;DHT22;6995;52.618;13.488;2024-01-07T00:55:07;-0.70;99.90
13850;DHT22;6995;52.618;13.488;2024-01-07T00:57:33;-0.80;99.90
13850;DHT22;6995;52.618;13.488;2024-01-07T00:59:59;-0.70;99.90
13850;DHT22;6995;52.618;13.488;2024-01-07T01:02:25;-0.80;99.90
13850;DHT22;6995;52.618;13.488;2024-01-07T01:04:51;-0.80;99.90
13850;DHT22;6995;52.618;13.488;2024-01-07T01:07:16;-0.80;99.90
13850;DHT22;6995;52.618;13.488;2024-01-07T01:09:45;-0.90;99.90
13850;DHT22;6995;52.618;13.488;2024-01-07T01:12:11;-1.00;99.90
13850;DHT22;6995;52.618;13.488;2024-01-07T01:14:36;-1.10;99.90
13850;DHT22;6995;52.618;13.488;2024-01-07T01:17:02;-1.10;99.90
13850;DHT22;6995;52.618;13.488;2024-01-07T01:19:28;-1.20;99.90
13850;DHT22;6995;52.618;13.488;2024-01-07T01:21:53;-1.20;99.90
13850;DHT22;6995;52.618;13.488;2024-01-07T01:24:19;-1.30;99.90
13850;DHT22;6995;52.618;13.488;2024-01-07T01:26:44;-1.30;99.90
13850;DHT22;6995;52.618;13.488;2024-01-07T01:29:10;-1.30;99.90
13850;DHT22;6995;52.618;13.488;2024-01-07T01:31:36;-1.40;99.90
13850;DHT22;6995;52.618;13.488;2024-01-07T01:34:02;-1.40;99.90
13850;DHT22;6995;52.618;13.488;2024-01-07T01:36:27;-1.40;99.90
13850;DHT22;6995;52.618;13.488;2024-01-07T01:38:53;-1.50;99.90
13850;DHT22;6995;52.618;13.488;2024-01-07T01:41:18;-1.50;99.90
13850;DHT22;6995;52.618;13.488;2024-01-07T01:43:47;-1.50;99.90
13850;DHT22;6995;52.618;13.488;2024-01-07T01:46:22;-1.50;99.90
13850;DHT22;6995;52.618;13.488;2024-01-07T01:48:47;-1.40;99.90
13850;DHT22;6995;52.618;13.488;2024-01-07T01:51:13;-1.40;99.90
13850;DHT22;6995;52.618;13.488;2024-01-07T01:53:40;-1.40;99.90
13850;DHT22;6995;52.618;13.488;2024-01-07T01:56:06;-1.40;99.90
13850;DHT22;6995;52.618;13.488;2024-01-07T01:58:32;-1.40;99.90
13850;DHT22;6995;52.618;13.488;2024-01-07T02:00:58;-1.40;99.90
13850;DHT22;6995;52.618;13.488;2024-01-07T02:03:24;-1.40;99.90
13850;DHT22;6995;52.618;13.488;2024-01-07T02:05:52;-1.40;99.90
13850;DHT22;6995;52.618;13.488;2024-01-07T02:08:21;-1.40;99.90
13850;DHT22;6995;52.618;13.488;2024-01-07T02:10:47;-1.50;99.90
13850;DHT22;6995;52.618;13.488;2024-01-07T02:13:13;-1.50;99.90
13850;DHT22;6995;52.618;13.488;2024-01-07T02:15:38;-1.50;99.90
13850;DHT22;6995;52.618;13.488;2024-01-07T02:18:04;-1.50;99.90
13850;DHT22;6995;52.618;13.488;2024-01-07T02:20:30;-1.50;99.90
13850;DHT22;6995;52.618;13.488;2024-01-07T02:22:56;-1.60;99.90
13850;DHT22;6995;52.618;13.488;2024-01-07T02:25:24;-1.60;99.90
13850;DHT22;6995;52.618;13.488;2024-01-07T02:27:50;-1.60;99.90
13850;DHT22;6995;52.618;13.488;2024-01-07T02:30:16;-1.70;99.90
13850;DHT22;6995;52.618;13.488;2024-01-07T02:32:43;-1.70;99.90
13850;DHT22;6995;52.618;13.488;2024-01-07T02:35:08;-1.70;99.90
13850;DHT22;6995;52.618;13.488;2024-01-07T02:37:34;-1.80;99.90
13850;DHT22;6995;52.618;13.488;2024-01-07T02:40:00;-1.90;99.90
13850;DHT22;6995;52.618;13.488;2024-01-07T02:42:26;-1.90;99.90
13850;DHT22;6995;52.618;13.488;2024-01-07T02:44:51;-1.90;99.90
13850;DHT22;6995;52.618;13.488;2024-01-07T02:47:17;-1.90;99.90
13850;DHT22;6995;52.618;13.488;2024-01-07T02:49:43;-1.90;99.90
13850;DHT22;6995;52.618;13.488;2024-01-07T02:52:08;-1.90;99.90
13850;DHT22;6995;52.618;13.488;2024-01-07T02:54:34;-2.00;99.90
13850;DHT22;6995;52.618;13.488;2024-01-07T02:56:59;-2.00;99.90
13850;DHT22;6995;52.618;13.488;2024-01-07T02:59:25;-2.00;99.90
13850;DHT22;6995;52.618;13.488;2024-01-07T03:01:50;-2.00;99.90
13850;DHT22;6995;52.618;13.488;2024-01-07T03:04:16;-2.00;99.90
13850;DHT22;6995;52.618;13.488;2024-01-07T03:06:42;-2.00;99.90
13850;DHT22;6995;52.618;13.488;2024-01-07T03:09:08;-2.10;99.90
13850;DHT22;6995;52.618;13.488;2024-01-07T03:11:39;-2.00;99.90
13850;DHT22;6995;52.618;13.488;2024-01-07T03:14:05;-2.10;99.90
13850;DHT22;6995;52.618;13.488;2024-01-07T03:16:31;-2.10;99.90
13850;DHT22;6995;52.618;13.488;2024-01-07T03:18:56;-2.10;99.90
13850;DHT22;6995;52.618;13.488;2024-01-07T03:21:23;-2.10;99.90
13850;DHT22;6995;52.618;13.488;2024-01-07T03:23:50;-2.10;99.90
13850;DHT22;6995;52.618;13.488;2024-01-07T03:26:17;-2.10;99.90
13850;DHT22;6995;52.618;13.488;2024-01-07T03:28:43;-2.10;99.90
13850;DHT22;6995;52.618;13.488;2024-01-07T03:31:13;-2.10;99.90
13850;DHT22;6995;52.618;13.488;2024-01-07T03:33:41;-2.10;99.90
13850;DHT22;6995;52.618;13.488;2024-01-07T03:36:12;-2.20;99.90
13850;DHT22;6995;52.618;13.488;2024-01-07T03:38:38;-2.10;99.90
13850;DHT22;6995;52.618;13.488;2024-01-07T03:41:05;-2.20;99.90
13850;DHT22;6995;52.618;13.488;2024-01-07T03:43:31;-2.10;99.90
13850;DHT22;6995;52.618;13.488;2024-01-07T03:45:57;-2.10;99.90
13850;DHT22;6995;52.618;13.488;2024-01-07T03:48:23;-2.00;99.90
13850;DHT22;6995;52.618;13.488;2024-01-07T03:50:49;-2.00;99.90
13850;DHT22;6995;52.618;13.488;2024-01-07T03:53:16;-2.00;99.90
13850;DHT22;6995;52.618;13.488;2024-01-07T03:55:42;-2.00;99.90
13850;DHT22;6995;52.618;13.488;2024-01-07T03:58:07;-1.90;99.90
13850;DHT22;6995;52.618;13.488;2024-01-07T04:00:34;-1.90;99.90
13850;DHT22;6995;52.618;13.488;2024-01-07T04:03:00;-1.80;99.90
13850;DHT22;6995;52.618;13.488;2024-01-07T04:05:26;-1.80;99.90
13850;DHT22;6995;52.618;13.488;2024-01-07T04:07:51;-1.80;99.90
13850;DHT22;6995;52.618;13.488;2024-01-07T04:10:17;-1.80;99.90
13850;DHT22;6995;52.618;13.488;2024-01-07T04:12:43;-1.70;99.90
13850;DHT22;6995;52.618;13.488;2024-01-07T04:15:09;-1.60;99.90
13850;DHT22;6995;52.618;13.488;2024-01-07T04:17:35;-1.60;99.90
13850;DHT22;6995;52.618;13.488;2024-01-07T04:20:00;-1.50;99.90
13850;DHT22;6995;52.618;13.488;2024-01-07T04:22:26;-1.40;99.90
13850;DHT22;6995;52.618;13.488;2024-01-07T04:24:52;-1.50;99.90
13850;DHT22;6995;52.618;13.488;2024-01-07T04:27:18;-1.40;99.90
13850;DHT22;6995;52.618;13.488;2024-01-07T04:29:43;-1.40;99.90
13850;DHT22;6995;52.618;13.488;2024-01-07T04:32:09;-1.50;99.90
13850;DHT22;6995;52.618;13.488;2024-01-07T04:34:36;-1.50;99.90
13850;DHT22;6995;52.618;13.488;2024-01-07T04:37:01;-1.50;99.90
13850;DHT22;6995;52.618;13.488;2024-01-07T04:39:28;-1.50;99.90
13850;DHT22;6995;52.618;13.488;2024-01-07T04:41:54;-1.40;99.90
13850;DHT22;6995;52.618;13.488;2024-01-07T04:44:19;-1.50;99.90
13850;DHT22;6995;52.618;13.488;2024-01-07T04:46:47;-1.40;99.90
13850;DHT22;6995;52.618;13.488;2024-01-07T04:49:14;-1.40;99.90
13850;DHT22;6995;52.618;13.488;2024-01-07T04:51:39;-1.40;99.90
13850;DHT22;6995;52.618;13.488;2024-01-07T04:54:05;-1.30;99.90
13850;DHT22;6995;52.618;13.488;2024-01-07T04:56:33;-1.30;99.90
13850;DHT22;6995;52.618;13.488;2024-01-07T04:58:59;-1.30;99.90
13850;DHT22;6995;52.618;13.488;2024-01-07T05:01:25;-1.30;99.90
13850;DHT22;6995;52.618;13.488;2024-01-07T05:03:51;-1.20;99.90
13850;DHT22;6995;52.618;13.488;2024-01-07T05:06:16;-1.30;99.90
13850;DHT22;6995;52.618;13.488;2024-01-07T05:08:42;-1.20;99.90
13850;DHT22;6995;52.618;13.488;2024-01-07T05:11:08;-1.20;99.90
13850;DHT22;6995;52.618;13.488;2024-01-07T05:13:35;-1.20;99.90
13850;DHT22;6995;52.618;13.488;2024-01-07T05:16:00;-1.20;99.90
13850;DHT22;6995;52.618;13.488;2024-01-07T05:18:26;-1.20;99.90
13850;DHT22;6995;52.618;13.488;2024-01-07T05:20:52;-1.20;99.90
13850;DHT22;6995;52.618;13.488;2024-01-07T05:23:18;-1.20;99.90
13850;DHT22;6995;52.618;13.488;2024-01-07T05:25:44;-1.20;99.90
13850;DHT22;6995;52.618;13.488;2024-01-07T05:28:11;-1.20;99.90
13850;DHT22;6995;52.618;13.488;2024-01-07T05:30:36;-1.20;99.90
13850;DHT22;6995;52.618;13.488;2024-01-07T05:33:02;-1.20;99.90
13850;DHT22;6995;52.618;13.488;2024-01-07T05:35:28;-1.20;99.90
13850;DHT22;6995;52.618;13.488;2024-01-07T05:37:53;-1.10;99.90
13850;DHT22;6995;52.618;13.488;2024-01-07T05:40:19;-1.10;99.90
13850;DHT22;6995;52.618;13.488;2024-01-07T05:42:45;-1.10;99.90
13850;DHT22;6995;52.618;13.488;2024-01-07T05:45:10;-1.00;99.90
13850;DHT22;6995;52.618;13.488;2024-01-07T05:47:36;-1.00;99.90
13850;DHT22;6995;52.618;13.488;2024-01-07T05:50:01;-1.00;99.90
13850;DHT22;6995;52.618;13.488;2024-01-07T05:52:28;-0.90;99.90
13850;DHT22;6995;52.618;13.488;2024-01-07T05:54:53;-0.90;99.90
13850;DHT22;6995;52.618;13.488;2024-01-07T05:57:19;-0.90;99.90
13850;DHT22;6995;52.618;13.488;2024-01-07T05:59:45;-0.90;99.90
13850;DHT22;6995;52.618;13.488;2024-01-07T06:02:11;-0.90;99.90
13850;DHT22;6995;52.618;13.488;2024-01-07T06:04:38;-0.90;99.90
13850;DHT22;6995;52.618;13.488;2024-01-07T06:07:04;-1.00;99.90
13850;DHT22;6995;52.618;13.488;2024-01-07T06:09:29;-1.00;99.90
13850;DHT22;6995;52.618;13.488;2024-01-07T06:11:55;-1.00;99.90
13850;DHT22;6995;52.618;13.488;2024-01-07T06:14:22;-1.00;99.90
13850;DHT22;6995;52.618;13.488;2024-01-07T06:16:47;-1.00;99.90
13850;DHT22;6995;52.618;13.488;2024-01-07T06:19:13;-1.00;99.90
13850;DHT22;6995;52.618;13.488;2024-01-07T06:21:40;-0.90;99.90
13850;DHT22;6995;52.618;13.488;2024-01-07T06:24:08;-0.90;99.90
13850;DHT22;6995;52.618;13.488;2024-01-07T06:26:34;-0.90;99.90
13850;DHT22;6995;52.618;13.488;2024-01-07T06:28:59;-0.80;99.90
13850;DHT22;6995;52.618;13.488;2024-01-07T06:31:25;-0.90;99.90
13850;DHT22;6995;52.618;13.488;2024-01-07T06:33:51;-0.90;99.90
13850;DHT22;6995;52.618;13.488;2024-01-07T06:36:17;-0.90;99.90
13850;DHT22;6995;52.618;13.488;2024-01-07T06:38:43;-0.90;99.90
13850;DHT22;6995;52.618;13.488;2024-01-07T06:41:12;-0.90;99.90
13850;DHT22;6995;52.618;13.488;2024-01-07T06:43:38;-0.90;99.90
13850;DHT22;6995;52.618;13.488;2024-01-07T06:46:04;-0.80;99.90
13850;DHT22;6995;52.618;13.488;2024-01-07T06:48:30;-0.90;99.90
13850;DHT22;6995;52.618;13.488;2024-01-07T06:50:55;-0.90;99.90
13850;DHT22;6995;52.618;13.488;2024-01-07T06:53:22;-0.80;99.90
13850;DHT22;6995;52.618;13.488;2024-01-07T06:55:47;-0.80;99.90
13850;DHT22;6995;52.618;13.488;2024-01-07T06:58:13;-0.80;99.90
13850;DHT22;6995;52.618;13.488;2024-01-07T07:00:39;-0.80;99.90
13850;DHT22;6995;52.618;13.488;2024-01-07T07:03:04;-0.80;99.90
13850;DHT22;6995;52.618;13.488;2024-01-07T07:05:33;-0.80;99.90
13850;DHT22;6995;52.618;13.488;2024-01-07T07:07:58;-0.80;99.90
13850;DHT22;6995;52.618;13.488;2024-01-07T07:10:24;-0.80;99.90
13850;DHT22;6995;52.618;13.488;2024-01-07T07:12:50;-0.80;99.90
13850;DHT22;6995;52.618;13.488;2024-01-07T07:15:18;-0.80;99.90
13850;DHT22;6995;52.618;13.488;2024-01-07T07:17:44;-0.70;99.90
13850;DHT22;6995;52.618;13.488;2024-01-07T07:20:10;-0.70;99.90
13850;DHT22;6995;52.618;13.488;2024-01-07T07:22:36;-0.70;99.90
13850;DHT22;6995;52.618;13.488;2024-01-07T07:25:02;-0.70;99.90
13850;DHT22;6995;52.618;13.488;2024-01-07T07:27:27;-0.70;99.90
13850;DHT22;6995;52.618;13.488;2024-01-07T07:29:53;-0.70;99.90
13850;DHT22;6995;52.618;13.488;2024-01-07T07:32:19;-0.60;99.90
13850;DHT22;6995;52.618;13.488;2024-01-07T07:34:44;-0.60;99.90
13850;DHT22;6995;52.618;13.488;2024-01-07T07:37:10;-0.60;99.90
13850;DHT22;6995;52.618;13.488;2024-01-07T07:39:35;-0.70;99.90
13850;DHT22;6995;52.618;13.488;2024-01-07T07:42:01;-0.60;99.90
13850;DHT22;6995;52.618;13.488;2024-01-07T07:44:27;-0.60;99.90
13850;DHT22;6995;52.618;13.488;2024-01-07T07:46:52;-0.60;99.90
13850;DHT22;6995;52.618;13.488;2024-01-07T07:49:18;-0.70;99.90
13850;DHT22;6995;52.618;13.488;2024-01-07T07:51:44;-0.80;99.90
13850;DHT22;6995;52.618;13.488;2024-01-07T07:54:10;-0.80;99.90
13850;DHT22;6995;52.618;13.488;2024-01-07T07:56:35;-0.80;99.90
13850;DHT22;6995;52.618;13.488;2024-01-07T07:59:02;-0.80;99.90
13850;DHT22;6995;52.618;13.488;2024-01-07T08:01:28;-0.70;99.90
13850;DHT22;6995;52.618;13.488;2024-01-07T08:03:54;-0.70;99.90
13850;DHT22;6995;52.618;13.488;2024-01-07T08:06:20;-0.60;99.90
13850;DHT22;6995;52.618;13.488;2024-01-07T08:08:45;-0.60;99.90
13850;DHT22;6995;52.618;13.488;2024-01-07T08:11:11;-0.50;99.90
13850;DHT22;6995;52.618;13.488;2024-01-07T08:13:37;-0.50;99.90
13850;DHT22;6995;52.618;13.488;2024-01-07T08:16:04;-0.50;99.90
13850;DHT22;6995;52.618;13.488;2024-01-07T08:18:29;-0.50;99.90
13850;DHT22;6995;52.618;13.488;2024-01-07T08:20:55;-0.50;99.90
13850;DHT22;6995;52.618;13.488;2024-01-07T08:23:21;-0.50;99.90
13850;DHT22;6995;52.618;13.488;2024-01-07T08:25:48;-0.50;99.90
13850;DHT22;6995;52.618;13.488;2024-01-07T08:28:14;-0.40;99.90
13850;DHT22;6995;52.618;13.488;2024-01-07T08:30:39;-0.40;99.90
13850;DHT22;6995;52.618;13.488;2024-01-07T08:33:05;-0.40;99.90
13850;DHT22;6995;52.618;13.488;2024-01-07T08:35:30;-0.40;99.90
13850;DHT22;6995;52.618;13.488;2024-01-07T08:37:56;-0.40;99.90
13850;DHT22;6995;52.618;13.488;2024-01-07T08:40:22;-0.40;99.90
13850;DHT22;6995;52.618;13.488;2024-01-07T08:42:47;-0.40;99.90
13850;DHT22;6995;52.618;13.488;2024-01-07T08:45:13;-0.40;99.90
13850;DHT22;6995;52.618;13.488;2024-01-07T08:47:39;-0.40;99.90
13850;DHT22;6995;52.618;13.488;2024-01-07T08:50:05;-0.40;99.90
13850;DHT22;6995;52.618;13.488;2024-01-07T08:52:31;-0.40;99.90
13850;DHT22;6995;52.618;13.488;2024-01-07T08:54:59;-0.30;99.90
13850;DHT22;6995;52.618;13.488;2024-01-07T08:57:25;-0.20;99.90
13850;DHT22;6995;52.618;13.488;2024-01-07T08:59:50;-0.20;99.90
13850;DHT22;6995;52.618;13.488;2024-01-07T09:02:17;-0.30;99.90
13850;DHT22;6995;52.618;13.488;2024-01-07T09:04:42;-0.30;99.90
13850;DHT22;6995;52.618;13.488;2024-01-07T09:07:08;-0.30;99.90
13850;DHT22;6995;52.618;13.488;2024-01-07T09:09:34;-0.30;99.90
13850;DHT22;6995;52.618;13.488;2024-01-07T09:11:59;-0.30;99.90
13850;DHT22;6995;52.618;13.488;2024-01-07T09:14:25;-0.30;99.90
13850;DHT22;6995;52.618;13.488;2024-01-07T09:16:51;-0.30;99.90
13850;DHT22;6995;52.618;13.488;2024-01-07T09:19:17;-0.40;99.90
13850;DHT22;6995;52.618;13.488;2024-01-07T09:21:43;-0.40;99.90
13850;DHT22;6995;52.618;13.488;2024-01-07T09:24:09;-0.40;99.90
13850;DHT22;6995;52.618;13.488;2024-01-07T09:26:35;-0.40;99.90
13850;DHT22;6995;52.618;13.488;2024-01-07T09:29:00;-0.40;99.90
13850;DHT22;6995;52.618;13.488;2024-01-07T09:31:27;-0.40;99.90
13850;DHT22;6995;52.618;13.488;2024-01-07T09:33:52;-0.30;99.90
13850;DHT22;6995;52.618;13.488;2024-01-07T09:36:18;-0.30;99.90
13850;DHT22;6995;52.618;13.488;2024-01-07T09:38:44;-0.40;99.90
13850;DHT22;6995;52.618;13.488;2024-01-07T09:41:10;-0.40;99.90
13850;DHT22;6995;52.618;13.488;2024-01-07T09:43:35;-0.40;99.90
13850;DHT22;6995;52.618;13.488;2024-01-07T09:46:02;-0.40;99.90
13850;DHT22;6995;52.618;13.488;2024-01-07T09:48:28;-0.40;99.90
13850;DHT22;6995;52.618;13.488;2024-01-07T09:50:55;-0.40;99.90
13850;DHT22;6995;52.618;13.488;2024-01-07T09:53:25;-0.30;99.90
13850;DHT22;6995;52.618;13.488;2024-01-07T09:58:42;-0.40;99.90
13850;DHT22;6995;52.618;13.488;2024-01-07T10:01:08;-0.40;99.90
13850;DHT22;6995;52.618;13.488;2024-01-07T10:03:34;-0.50;99.90
13850;DHT22;6995;52.618;13.488;2024-01-07T10:06:00;-0.50;99.90
13850;DHT22;6995;52.618;13.488;2024-01-07T10:08:26;-0.50;99.90
13850;DHT22;6995;52.618;13.488;2024-01-07T10:10:51;-0.40;99.90
13850;DHT22;6995;52.618;13.488;2024-01-07T10:13:20;-0.20;99.90
13850;DHT22;6995;52.618;13.488;2024-01-07T10:15:47;-0.20;99.90
13850;DHT22;6995;52.618;13.488;2024-01-07T10:18:14;-0.10;99.90
13850;DHT22;6995;52.618;13.488;2024-01-07T10:20:39;-0.10;99.90
13850;DHT22;6995;52.618;13.488;2024-01-07T10:23:07;0.00;99.90
13850;DHT22;6995;52.618;13.488;2024-01-07T10:25:34;0.20;99.90
13850;DHT22;6995;52.618;13.488;2024-01-07T10:28:01;0.20;99.90
13850;DHT22;6995;52.618;13.488;2024-01-07T10:30:27;0.10;99.90
13850;DHT22;6995;52.618;13.488;2024-01-07T10:32:59;0.10;99.90
13850;DHT22;6995;52.618;13.488;2024-01-07T10:35:37;0.10;99.90
13850;DHT22;6995;52.618;13.488;2024-01-07T10:38:03;0.10;99.90
13850;DHT22;6995;52.618;13.488;2024-01-07T10:40:30;0.20;99.90
13850;DHT22;6995;52.618;13.488;2024-01-07T10:42:57;0.30;99.90
13850;DHT22;6995;52.618;13.488;2024-01-07T10:45:27;0.40;99.90
13850;DHT22;6995;52.618;13.488;2024-01-07T10:47:55;0.50;99.90
13850;DHT22;6995;52.618;13.488;2024-01-07T10:50:22;0.60;99.90
13850;DHT22;6995;52.618;13.488;2024-01-07T10:52:50;0.60;99.90
13850;DHT22;6995;52.618;13.488;2024-01-07T10:55:18;0.60;99.90
13850;DHT22;6995;52.618;13.488;2024-01-07T10:57:48;0.60;99.90
13850;DHT22;6995;52.618;13.488;2024-01-07T11:00:16;0.50;99.90
13850;DHT22;6995;52.618;13.488;2024-01-07T11:03:08;0.50;99.90
13850;DHT22;6995;52.618;13.488;2024-01-07T11:08:43;0.60;99.90
13850;DHT22;6995;52.618;13.488;2024-01-07T11:11:18;0.70;99.90
13850;DHT22;6995;52.618;13.488;2024-01-07T11:13:49;0.70;99.90
13850;DHT22;6995;52.618;13.488;2024-01-07T11:16:44;0.60;99.90
13850;DHT22;6995;52.618;13.488;2024-01-07T11:19:13;0.50;99.90
13850;DHT22;6995;52.618;13.488;2024-01-07T11:21:40;0.50;99.90
13850;DHT22;6995;52.618;13.488;2024-01-07T11:24:06;0.50;99.90
13850;DHT22;6995;52.618;13.488;2024-01-07T11:26:32;0.50;99.90
13850;DHT22;6995;52.618;13.488;2024-01-07T11:28:58;0.60;99.90
13850;DHT22;6995;52.618;13.488;2024-01-07T11:31:47;0.60;99.90
13850;DHT22;6995;52.618;13.488;2024-01-07T11:38:48;0.30;99.90
13850;DHT22;6995;52.618;13.488;2024-01-07T11:42:06;0.40;99.90
13850;DHT22;6995;52.618;13.488;2024-01-07T11:44:38;0.40;99.90
13850;DHT22;6995;52.618;13.488;2024-01-07T11:47:35;0.40;99.90
13850;DHT22;6995;52.618;13.488;2024-01-07T11:57:13;0.40;99.90
13850;DHT22;6995;52.618;13.488;2024-01-07T12:03:05;0.50;99.90
13850;DHT22;6995;52.618;13.488;2024-01-07T12:05:31;0.50;99.90
13850;DHT22;6995;52.618;13.488;2024-01-07T12:07:57;0.50;99.90
13850;DHT22;6995;52.618;13.488;2024-01-07T12:10:23;0.60;99.90
13850;DHT22;6995;52.618;13.488;2024-01-07T12:12:50;0.60;99.90
13850;DHT22;6995;52.618;13.488;2024-01-07T12:18:36;0.70;99.90
13850;DHT22;6995;52.618;13.488;2024-01-07T12:21:21;0.70;99.90
13850;DHT22;6995;52.618;13.488;2024-01-07T12:24:10;0.70;99.90
13850;DHT22;6995;52.618;13.488;2024-01-07T12:27:04;0.80;99.90
13850;DHT22;6995;52.618;13.488;2024-01-07T12:29:39;0.90;99.90
13850;DHT22;6995;52.618;13.488;2024-01-07T12:32:20;0.90;99.90
13850;DHT22;6995;52.618;13.488;2024-01-07T12:34:46;0.90;99.90
13850;DHT22;6995;52.618;13.488;2024-01-07T12:37:16;0.80;99.90
13850;DHT22;6995;52.618;13.488;2024-01-07T12:39:44;0.90;99.90
13850;DHT22;6995;52.618;13.488;2024-01-07T12:42:10;1.00;99.90
13850;DHT22;6995;52.618;13.488;2024-01-07T12:44:36;1.00;99.90
13850;DHT22;6995;52.618;13.488;2024-01-07T12:47:02;1.00;99.90
13850;DHT22;6995;52.618;13.488;2024-01-07T12:49:40;0.90;99.90
13850;DHT22;6995;52.618;13.488;2024-01-07T12:52:05;0.90;99.90
13850;DHT22;6995;52.618;13.488;2024-01-07T12:54:31;0.90;99.90
13850;DHT22;6995;52.618;13.488;2024-01-07T12:56:57;0.90;99.90
13850;DHT22;6995;52.618;13.488;2024-01-07T12:59:23;0.90;99.90
13850;DHT22;6995;52.618;13.488;2024-01-07T13:02:06;0.90;99.90
13850;DHT22;6995;52.618;13.488;2024-01-07T13:04:32;0.90;99.90
13850;DHT22;6995;52.618;13.488;2024-01-07T13:07:01;1.00;99.90
13850;DHT22;6995;52.618;13.488;2024-01-07T13:09:36;1.00;99.90
13850;DHT22;6995;52.618;13.488;2024-01-07T13:12:14;1.00;99.90
13850;DHT22;6995;52.618;13.488;2024-01-07T13:15:02;1.00;99.90
13850;DHT22;6995;52.618;13.488;2024-01-07T13:22:22;1.00;99.90
13850;DHT22;6995;52.618;13.488;2024-01-07T13:28:08;1.00;99.90
13850;DHT22;6995;52.618;13.488;2024-01-07T13:30:38;1.00;99.90
13850;DHT22;6995;52.618;13.488;2024-01-07T13:33:05;1.00;99.90
13850;DHT22;6995;52.618;13.488;2024-01-07T13:39:09;1.00;99.90
13850;DHT22;6995;52.618;13.488;2024-01-07T13:41:34;1.00;99.90
13850;DHT22;6995;52.618;13.488;2024-01-07T13:47:10;0.90;99.90
13850;DHT22;6995;52.618;13.488;2024-01-07T13:49:44;0.90;99.90
13850;DHT22;6995;52.618;13.488;2024-01-07T13:52:19;0.90;99.90
13850;DHT22;6995;52.618;13.488;2024-01-07T13:54:53;0.90;99.90
13850;DHT22;6995;52.618;13.488;2024-01-07T13:57:54;0.80;99.90
13850;DHT22;6995;52.618;13.488;2024-01-07T14:01:16;0.80;99.90
13850;DHT22;6995;52.618;13.488;2024-01-07T14:04:13;0.80;99.90
13850;DHT22;6995;52.618;13.488;2024-01-07T14:06:59;0.90;99.90
13850;DHT22;6995;52.618;13.488;2024-01-07T14:09:24;0.90;99.90
13850;DHT22;6995;52.618;13.488;2024-01-07T14:11:55;1.00;99.90
13850;DHT22;6995;52.618;13.488;2024-01-07T14:14:21;1.00;99.90
13850;DHT22;6995;52.618;13.488;2024-01-07T14:16:53;0.90;99.90
13850;DHT22;6995;52.618;13.488;2024-01-07T14:19:19;0.80;99.90
13850;DHT22;6995;52.618;13.488;2024-01-07T14:21:44;0.80;99.90
13850;DHT22;6995;52.618;13.488;2024-01-07T14:24:10;0.80;99.90
13850;DHT22;6995;52.618;13.488;2024-01-07T14:26:36;0.90;99.90
13850;DHT22;6995;52.618;13.488;2024-01-07T14:29:01;0.90;99.90
13850;DHT22;6995;52.618;13.488;2024-01-07T14:31:38;0.80;99.90
13850;DHT22;6995;52.618;13.488;2024-01-07T14:34:07;0.80;99.90
13850;DHT22;6995;52.618;13.488;2024-01-07T14:36:45;0.80;99.90
13850;DHT22;6995;52.618;13.488;2024-01-07T14:39:10;0.80;99.90
13850;DHT22;6995;52.618;13.488;2024-01-07T14:41:38;0.80;99.90
13850;DHT22;6995;52.618;13.488;2024-01-07T14:46:57;0.70;99.90
13850;DHT22;6995;52.618;13.488;2024-01-07T14:49:25;0.80;99.90
13850;DHT22;6995;52.618;13.488;2024-01-07T14:55:04;0.60;99.90
13850;DHT22;6995;52.618;13.488;2024-01-07T14:57:39;0.60;99.90
13850;DHT22;6995;52.618;13.488;2024-01-07T15:00:08;0.60;99.90
13850;DHT22;6995;52.618;13.488;2024-01-07T15:02:43;0.60;99.90
13850;DHT22;6995;52.618;13.488;2024-01-07T15:05:09;0.60;99.90
13850;DHT22;6995;52.618;13.488;2024-01-07T15:07:34;0.60;99.90
13850;DHT22;6995;52.618;13.488;2024-01-07T15:10:00;0.60;99.90
13850;DHT22;6995;52.618;13.488;2024-01-07T15:12:26;0.60;99.90
13850;DHT22;6995;52.618;13.488;2024-01-07T15:15:01;0.60;99.90
13850;DHT22;6995;52.618;13.488;2024-01-07T15:17:31;0.50;99.90
13850;DHT22;6995;52.618;13.488;2024-01-07T15:19:58;0.60;99.90
13850;DHT22;6995;52.618;13.488;2024-01-07T15:22:23;0.60;99.90
13850;DHT22;6995;52.618;13.488;2024-01-07T15:24:49;0.60;99.90
13850;DHT22;6995;52.618;13.488;2024-01-07T15:27:16;0.60;99.90
13850;DHT22;6995;52.618;13.488;2024-01-07T15:29:42;0.60;99.90
13850;DHT22;6995;52.618;13.488;2024-01-07T15:32:07;0.50;99.90
13850;DHT22;6995;52.618;13.488;2024-01-07T15:34:33;0.50;99.90
13850;DHT22;6995;52.618;13.488;2024-01-07T15:36:59;0.50;99.90
13850;DHT22;6995;52.618;13.488;2024-01-07T15:39:24;0.60;99.90
13850;DHT22;6995;52.618;13.488;2024-01-07T15:41:50;0.60;99.90
13850;DHT22;6995;52.618;13.488;2024-01-07T15:44:16;0.60;99.90
13850;DHT22;6995;52.618;13.488;2024-01-07T15:46:42;0.50;99.90
13850;DHT22;6995;52.618;13.488;2024-01-07T15:49:08;0.50;99.90
13850;DHT22;6995;52.618;13.488;2024-01-07T15:51:34;0.50;99.90
13850;DHT22;6995;52.618;13.488;2024-01-07T15:53:59;0.50;99.90
13850;DHT22;6995;52.618;13.488;2024-01-07T15:56:25;0.50;99.90
13850;DHT22;6995;52.618;13.488;2024-01-07T15:58:51;0.50;99.90
13850;DHT22;6995;52.618;13.488;2024-01-07T16:01:16;0.50;99.90
13850;DHT22;6995;52.618;13.488;2024-01-07T16:03:42;0.50;99.90
13850;DHT22;6995;52.618;13.488;2024-01-07T16:06:08;0.40;99.90
13850;DHT22;6995;52.618;13.488;2024-01-07T16:08:34;0.50;99.90
13850;DHT22;6995;52.618;13.488;2024-01-07T16:10:59;0.40;99.90
13850;DHT22;6995;52.618;13.488;2024-01-07T16:13:25;0.40;99.90
13850;DHT22;6995;52.618;13.488;2024-01-07T16:15:51;0.50;99.90
13850;DHT22;6995;52.618;13.488;2024-01-07T16:18:18;0.50;99.90
13850;DHT22;6995;52.618;13.488;2024-01-07T16:20:44;0.50;99.90
13850;DHT22;6995;52.618;13.488;2024-01-07T16:23:11;0.40;99.90